createdAt,value
2023-02-21T00:02:55.557Z,9.61
2023-02-21T00:08:35.331Z,9.60
2023-02-21T00:14:00.252Z,9.58
2023-02-21T00:20:00.133Z,9.62
2023-02-21T00:26:20.042Z,9.66
2023-02-21T00:32:39.994Z,9.67
2023-02-21T00:38:59.925Z,9.68
2023-02-21T00:44:40.091Z,9.63
2023-02-21T00:50:00.138Z,9.59
2023-02-21T00:55:20.409Z,9.57
2023-02-21T01:00:42.592Z,9.58
2023-02-21T01:06:02.357Z,9.56
2023-02-21T01:11:22.896Z,9.53
2023-02-21T01:16:46.266Z,9.47
2023-02-21T01:22:06.880Z,9.44
2023-02-21T01:27:26.998Z,9.39
2023-02-21T01:32:47.114Z,9.32
2023-02-21T01:38:07.212Z,9.28
2023-02-21T01:43:35.989Z,9.23
2023-02-21T01:48:55.996Z,9.18
2023-02-21T01:54:16.553Z,9.17
2023-02-21T01:59:40.635Z,9.15
2023-02-21T02:05:01.671Z,9.14
2023-02-21T02:10:22.147Z,9.08
2023-02-21T02:15:42.510Z,8.97
2023-02-21T02:21:22.826Z,8.83
2023-02-21T02:26:45.854Z,8.64
2023-02-21T02:32:21.697Z,8.41
2023-02-21T02:37:46.036Z,8.23
2023-02-21T02:43:07.247Z,8.04
2023-02-21T02:48:23.056Z,7.86
2023-02-21T02:53:28.411Z,7.73
2023-02-21T02:58:41.778Z,7.62
2023-02-21T03:04:05.441Z,7.57
2023-02-21T03:09:18.678Z,7.51
2023-02-21T03:14:24.902Z,7.48
2023-02-21T03:19:34.102Z,7.47
2023-02-21T03:24:39.958Z,7.46
2023-02-21T03:29:41.646Z,7.47
2023-02-21T03:34:44.031Z,7.46
2023-02-21T03:39:47.655Z,7.45
2023-02-21T03:44:50.182Z,7.42
2023-02-21T03:50:03.067Z,7.37
2023-02-21T03:55:07.959Z,7.35
2023-02-21T04:00:13.380Z,7.32
2023-02-21T04:05:17.143Z,7.30
2023-02-21T04:11:18.765Z,7.30
2023-02-21T04:17:40.060Z,7.32
2023-02-21T04:24:03.466Z,7.33
2023-02-21T04:30:26.568Z,7.29
2023-02-21T04:36:48.542Z,7.26
2023-02-21T04:42:20.629Z,7.26
2023-02-21T04:47:22.010Z,7.29
2023-02-21T04:52:23.394Z,7.33
2023-02-21T04:58:25.790Z,7.35
2023-02-21T05:04:48.431Z,7.39
2023-02-21T05:10:11.222Z,7.41
2023-02-21T05:15:13.403Z,7.43
2023-02-21T05:20:14.758Z,7.42
2023-02-21T05:25:18.011Z,7.40
2023-02-21T05:31:19.600Z,7.36
2023-02-21T05:36:41.697Z,7.32
2023-02-21T05:41:48.001Z,7.26
2023-02-21T05:46:49.274Z,7.20
2023-02-21T05:51:50.533Z,7.16
2023-02-21T05:56:52.599Z,7.16
2023-02-21T06:01:53.962Z,7.17
2023-02-21T06:07:00.434Z,7.20
2023-02-21T06:12:04.167Z,7.23
2023-02-21T06:17:05.505Z,7.24
2023-02-21T06:22:06.967Z,7.29
2023-02-21T06:27:08.252Z,7.32
2023-02-21T06:32:09.516Z,7.34
2023-02-21T06:37:10.844Z,7.38
2023-02-21T06:42:14.392Z,7.46
2023-02-21T06:47:16.935Z,7.54
2023-02-21T06:52:18.453Z,7.63
2023-02-21T06:57:20.042Z,7.67
2023-02-21T07:02:21.371Z,7.75
2023-02-21T07:07:22.967Z,7.80
2023-02-21T07:12:24.487Z,7.79
2023-02-21T07:17:25.934Z,7.88
2023-02-21T07:22:27.863Z,8.06
2023-02-21T07:27:29.334Z,8.04
2023-02-21T07:32:30.447Z,8.00
2023-02-21T07:37:31.872Z,8.02
2023-02-21T07:42:33.616Z,8.09
2023-02-21T07:47:35.639Z,8.63
2023-02-21T07:52:36.873Z,9.20
2023-02-21T07:57:38.456Z,9.73
2023-02-21T08:02:40.148Z,9.60
2023-02-21T08:07:41.714Z,9.36
2023-02-21T08:12:43.097Z,9.18
2023-02-21T08:17:54.204Z,9.31
2023-02-21T08:22:56.477Z,9.38
2023-02-21T08:27:58.296Z,9.24
2023-02-21T08:32:59.829Z,9.33
2023-02-21T08:38:03.385Z,9.37
2023-02-21T08:43:05.501Z,9.58
2023-02-21T08:48:06.844Z,9.76
2023-02-21T08:53:15.571Z,9.83
2023-02-21T08:58:17.020Z,9.88
2023-02-21T09:03:18.639Z,9.92
2023-02-21T09:08:22.011Z,9.83
2023-02-21T09:13:29.584Z,9.79
2023-02-21T09:18:31.714Z,9.72
2023-02-21T09:23:32.929Z,9.60
2023-02-21T09:28:34.447Z,9.54
2023-02-21T09:33:41.307Z,9.53
2023-02-21T09:38:42.645Z,9.57
2023-02-21T09:43:48.137Z,9.57
2023-02-21T09:48:49.958Z,9.58
2023-02-21T09:53:55.561Z,9.60
2023-02-21T09:58:58.500Z,9.60
2023-02-21T10:04:18.440Z,9.57
2023-02-21T10:09:44.761Z,9.59
2023-02-21T10:15:04.569Z,9.77
2023-02-21T10:20:22.114Z,9.92
2023-02-21T10:25:45.173Z,9.82
2023-02-21T10:30:49.288Z,9.72
2023-02-21T10:35:54.372Z,9.72
2023-02-21T10:40:58.141Z,9.77
2023-02-21T10:46:10.949Z,10.29
2023-02-21T10:51:16.093Z,11.12
2023-02-21T10:56:18.102Z,11.27
2023-02-21T11:01:43.561Z,11.04
2023-02-21T11:06:48.869Z,10.78
2023-02-21T11:12:19.150Z,10.52
2023-02-21T11:17:25.140Z,10.27
2023-02-21T11:22:43.545Z,10.14
2023-02-21T11:27:57.610Z,10.33
2023-02-21T11:33:04.254Z,10.49
2023-02-21T11:38:29.508Z,10.41
2023-02-21T11:43:32.866Z,10.31
2023-02-21T11:48:44.416Z,10.53
2023-02-21T11:53:46.146Z,11.34
2023-02-21T11:59:35.598Z,12.29
2023-02-21T12:04:51.772Z,12.85
2023-02-21T12:10:02.253Z,12.51
2023-02-21T12:15:19.441Z,12.13
2023-02-21T12:20:54.053Z,11.90
2023-02-21T12:26:22.970Z,11.63
2023-02-21T12:31:35.433Z,11.23
2023-02-21T12:36:58.289Z,10.88
2023-02-21T12:42:25.551Z,10.56
2023-02-21T12:47:36.138Z,10.28
2023-02-21T12:53:40.581Z,10.33
2023-02-21T12:59:32.254Z,10.32
2023-02-21T13:04:56.400Z,10.33
2023-02-21T13:10:05.050Z,10.28
2023-02-21T13:15:21.594Z,10.71
2023-02-21T13:20:25.488Z,11.24
2023-02-21T13:25:30.173Z,11.31
2023-02-21T13:31:37.503Z,11.09
2023-02-21T13:38:04.351Z,10.67
2023-02-21T13:44:25.464Z,10.26
2023-02-21T13:49:55.288Z,10.12
2023-02-21T13:55:10.290Z,10.43
2023-02-21T14:00:20.657Z,11.01
2023-02-21T14:05:22.742Z,11.48
2023-02-21T14:10:47.140Z,11.64
2023-02-21T14:15:55.991Z,11.70
2023-02-21T14:20:58.886Z,11.93
2023-02-21T14:26:02.367Z,12.05
2023-02-21T14:31:03.962Z,11.96
2023-02-21T14:36:14.506Z,11.84
2023-02-21T14:41:37.005Z,11.68
2023-02-21T14:47:06.370Z,11.49
2023-02-21T14:52:41.921Z,11.50
2023-02-21T14:58:01.659Z,11.48
2023-02-21T15:03:09.366Z,11.73
2023-02-21T15:08:16.399Z,11.76
2023-02-21T15:13:23.722Z,11.61
2023-02-21T15:18:31.689Z,11.41
2023-02-21T15:23:34.002Z,11.28
2023-02-21T15:28:35.252Z,11.23
2023-02-21T15:33:39.161Z,11.11
2023-02-21T15:38:48.471Z,10.99
2023-02-21T15:43:57.103Z,10.74
2023-02-21T15:49:03.437Z,10.46
2023-02-21T15:54:16.887Z,10.29
2023-02-21T15:59:29.444Z,10.15
2023-02-21T16:04:36.259Z,10.05
2023-02-21T16:15:04.983Z,9.83
2023-02-21T16:20:21.904Z,9.73
2023-02-21T16:25:24.843Z,9.61
2023-02-21T16:30:35.082Z,9.51
2023-02-21T16:35:36.762Z,9.41
2023-02-21T16:40:38.212Z,9.33
2023-02-21T16:45:42.068Z,9.26
2023-02-21T16:50:46.827Z,9.10
2023-02-21T16:55:50.108Z,8.95
2023-02-21T17:00:53.338Z,8.81
2023-02-21T17:33:34.662Z,9.51
2023-02-21T17:38:40.471Z,9.34
2023-02-21T17:43:45.243Z,9.02
2023-02-21T18:07:54.465Z,9.35
2023-02-21T18:12:57.071Z,9.01
2023-02-21T18:18:06.972Z,8.58
2023-02-21T18:23:09.708Z,8.28
2023-02-21T18:28:11.779Z,8.10
2023-02-21T18:33:14.541Z,7.91
2023-02-21T18:38:16.749Z,7.79
2023-02-21T18:43:29.017Z,7.73
2023-02-21T18:48:30.999Z,7.67
2023-02-21T18:53:33.270Z,7.65
2023-02-21T18:58:36.965Z,7.62
2023-02-21T19:03:39.146Z,7.58
2023-02-21T19:08:41.219Z,7.57
2023-02-21T19:13:50.539Z,7.58
2023-02-21T19:18:57.068Z,7.61
2023-02-21T19:23:59.292Z,7.60
2023-02-21T19:29:03.707Z,7.56
2023-02-21T19:34:06.100Z,7.53
2023-02-21T19:39:09.937Z,7.50
2023-02-21T19:44:12.475Z,7.37
2023-02-21T19:49:22.109Z,7.18
2023-02-21T19:54:25.289Z,7.00
2023-02-21T19:59:29.494Z,6.81
2023-02-21T20:04:41.598Z,6.62
2023-02-21T20:09:46.462Z,6.45
2023-02-21T20:14:50.843Z,6.30
2023-02-21T20:19:55.157Z,6.18
2023-02-21T20:24:58.733Z,6.12
2023-02-21T20:30:02.417Z,6.12
2023-02-21T20:35:05.731Z,6.09
2023-02-21T20:40:11.330Z,6.02
2023-02-21T20:45:13.457Z,5.87
2023-02-21T20:50:20.368Z,5.75
2023-02-21T20:55:22.647Z,5.61
2023-02-21T21:00:30.631Z,5.50
2023-02-21T21:06:27.138Z,5.46
2023-02-21T21:11:43.094Z,5.47
2023-02-21T21:16:45.909Z,5.51
2023-02-21T21:21:48.022Z,5.49
2023-02-21T21:26:58.903Z,5.44
2023-02-21T21:32:01.004Z,5.37
2023-02-21T21:37:03.986Z,5.32
2023-02-21T21:42:09.666Z,5.30
2023-02-21T21:48:11.415Z,5.27
2023-02-21T21:54:33.193Z,5.19
2023-02-21T21:59:55.124Z,5.09
2023-02-21T22:04:58.140Z,4.99
2023-02-21T22:10:02.681Z,4.97
2023-02-21T22:15:06.083Z,4.95
2023-02-21T22:20:17.497Z,4.95
2023-02-21T22:25:21.114Z,4.92
2023-02-21T22:30:23.231Z,4.90
2023-02-21T22:35:25.326Z,4.86
2023-02-21T22:40:28.301Z,4.83
2023-02-21T22:45:33.422Z,4.84
2023-02-21T22:50:39.712Z,4.87
2023-02-21T22:55:41.708Z,4.88
2023-02-21T23:00:43.663Z,4.86
2023-02-21T23:05:48.239Z,4.80
2023-02-21T23:10:51.777Z,4.76
2023-02-21T23:15:56.220Z,4.71
2023-02-21T23:20:58.451Z,4.70
2023-02-21T23:26:00.406Z,4.68
2023-02-21T23:31:02.456Z,4.62
2023-02-21T23:36:05.003Z,4.57
2023-02-21T23:41:10.637Z,4.58
2023-02-21T23:46:20.138Z,4.63
2023-02-21T23:51:26.526Z,4.68
2023-02-21T23:56:28.684Z,4.65
